createdAt,value
2022-08-24T00:00:38.197Z,4.70
2022-08-24T00:03:05.602Z,4.93
2022-08-24T00:05:33.526Z,4.45
2022-08-24T00:08:00.858Z,4.30
2022-08-24T00:10:28.253Z,5.07
2022-08-24T00:12:55.511Z,4.05
2022-08-24T00:15:22.999Z,3.80
2022-08-24T00:17:50.423Z,3.92
2022-08-24T00:20:17.840Z,4.13
2022-08-24T00:22:45.695Z,3.90
2022-08-24T00:25:13.820Z,4.50
2022-08-24T00:27:42.054Z,3.53
2022-08-24T00:30:15.352Z,4.30
2022-08-24T00:32:43.733Z,4.03
2022-08-24T00:35:12.442Z,4.22
2022-08-24T00:37:40.279Z,3.95
2022-08-24T00:40:14.686Z,3.60
2022-08-24T00:42:42.002Z,3.95
2022-08-24T00:45:11.614Z,3.10
2022-08-24T00:47:47.851Z,3.80
2022-08-24T00:50:25.375Z,3.67
2022-08-24T00:53:03.686Z,3.85
2022-08-24T00:55:39.420Z,3.85
2022-08-24T00:58:17.052Z,3.22
2022-08-24T01:00:50.827Z,3.45
2022-08-24T01:03:18.614Z,3.78
2022-08-24T01:05:46.867Z,3.40
2022-08-24T01:08:15.748Z,3.38
2022-08-24T01:10:46.886Z,3.53
2022-08-24T01:13:15.132Z,3.92
2022-08-24T01:15:47.784Z,3.45
2022-08-24T01:18:37.699Z,3.50
2022-08-24T01:21:19.286Z,3.72
2022-08-24T01:23:59.183Z,3.45
2022-08-24T01:26:46.496Z,3.88
2022-08-24T01:29:23.744Z,3.72
2022-08-24T01:31:51.860Z,4.10
2022-08-24T01:34:19.339Z,3.20
2022-08-24T01:36:56.149Z,3.47
2022-08-24T01:39:30.098Z,4.10
2022-08-24T01:41:58.702Z,2.90
2022-08-24T01:44:28.943Z,3.15
2022-08-24T01:46:57.390Z,3.55
2022-08-24T01:49:28.099Z,2.67
2022-08-24T01:51:56.033Z,3.25
2022-08-24T01:54:24.305Z,2.97
2022-08-24T01:56:51.975Z,3.10
2022-08-24T01:59:20.256Z,3.33
2022-08-24T02:01:55.012Z,2.85
2022-08-24T02:04:22.904Z,3.28
2022-08-24T02:06:50.983Z,3.45
2022-08-24T02:09:18.246Z,3.58
2022-08-24T02:11:45.638Z,3.10
2022-08-24T02:14:14.479Z,3.72
2022-08-24T02:16:42.602Z,2.95
2022-08-24T02:19:10.056Z,2.63
2022-08-24T02:21:38.428Z,3.63
2022-08-24T02:24:07.777Z,3.40
2022-08-24T02:26:35.340Z,3.80
2022-08-24T02:29:03.539Z,3.13
2022-08-24T02:31:32.065Z,3.22
2022-08-24T02:33:59.747Z,3.20
2022-08-24T02:36:27.226Z,3.53
2022-08-24T02:38:58.487Z,3.42
2022-08-24T02:41:26.658Z,3.40
2022-08-24T02:43:55.954Z,3.83
2022-08-24T02:46:27.216Z,3.42
2022-08-24T02:49:10.867Z,3.25
2022-08-24T02:51:44.956Z,3.38
2022-08-24T02:54:19.406Z,3.90
2022-08-24T02:56:48.524Z,3.38
2022-08-24T02:59:17.455Z,3.50
2022-08-24T03:01:46.240Z,3.72
2022-08-24T03:04:14.477Z,3.78
2022-08-24T03:06:42.341Z,3.00
2022-08-24T03:09:09.729Z,3.55
2022-08-24T03:11:37.542Z,3.85
2022-08-24T03:14:06.444Z,3.00
2022-08-24T03:16:34.760Z,3.70
2022-08-24T03:19:02.497Z,2.90
2022-08-24T03:21:33.473Z,3.72
2022-08-24T03:24:00.883Z,3.25
2022-08-24T03:26:28.307Z,3.95
2022-08-24T03:28:55.926Z,3.35
2022-08-24T03:31:23.336Z,2.80
2022-08-24T03:33:51.020Z,3.75
2022-08-24T03:36:18.684Z,3.45
2022-08-24T03:38:45.936Z,4.43
2022-08-24T03:41:13.572Z,3.63
2022-08-24T03:43:47.195Z,4.47
2022-08-24T03:46:25.176Z,3.42
2022-08-24T03:48:54.546Z,3.90
2022-08-24T03:51:25.988Z,4.30
2022-08-24T03:53:56.206Z,3.72
2022-08-24T03:56:27.732Z,3.85
2022-08-24T03:58:56.148Z,3.90
2022-08-24T04:01:25.674Z,4.32
2022-08-24T04:03:55.213Z,4.20
2022-08-24T04:06:27.029Z,4.13
2022-08-24T04:08:55.328Z,4.07
2022-08-24T04:11:25.327Z,3.80
2022-08-24T04:13:56.494Z,4.00
2022-08-24T04:16:26.020Z,3.72
2022-08-24T04:19:08.164Z,4.65
2022-08-24T04:21:37.292Z,3.47
2022-08-24T04:24:09.219Z,3.88
2022-08-24T04:26:44.822Z,3.72
2022-08-24T04:29:17.295Z,4.00
2022-08-24T04:31:49.595Z,3.50
2022-08-24T04:34:18.463Z,3.20
2022-08-24T04:36:46.666Z,3.95
2022-08-24T04:39:14.848Z,3.40
2022-08-24T04:41:51.367Z,3.63
2022-08-24T04:44:21.360Z,3.85
2022-08-24T04:46:48.741Z,4.35
2022-08-24T04:49:16.409Z,3.35
2022-08-24T04:51:44.175Z,3.60
2022-08-24T04:54:11.773Z,4.32
2022-08-24T04:56:39.682Z,4.18
2022-08-24T04:59:07.219Z,4.13
2022-08-24T05:01:35.490Z,3.97
2022-08-24T05:04:05.489Z,3.90
2022-08-24T05:06:33.829Z,3.35
2022-08-24T05:09:03.567Z,3.97
2022-08-24T05:11:31.239Z,3.97
2022-08-24T05:13:59.363Z,3.72
2022-08-24T05:16:27.848Z,3.55
2022-08-24T05:18:56.612Z,4.20
2022-08-24T05:21:25.144Z,4.47
2022-08-24T05:23:55.016Z,4.35
2022-08-24T05:26:26.599Z,3.88
2022-08-24T05:28:56.941Z,3.90
2022-08-24T05:31:29.558Z,3.05
2022-08-24T05:34:00.756Z,4.20
2022-08-24T05:36:32.559Z,3.72
2022-08-24T05:39:05.970Z,4.22
2022-08-24T05:41:36.116Z,3.40
2022-08-24T05:44:27.915Z,3.53
2022-08-24T05:47:01.130Z,3.70
2022-08-24T05:49:29.085Z,3.67
2022-08-24T05:51:56.445Z,4.05
2022-08-24T05:54:24.719Z,4.00
2022-08-24T05:57:07.216Z,3.45
2022-08-24T05:59:41.025Z,3.60
2022-08-24T06:02:16.478Z,3.65
2022-08-24T06:04:45.098Z,4.15
2022-08-24T06:07:13.651Z,3.65
2022-08-24T06:09:45.799Z,4.25
2022-08-24T06:12:13.728Z,3.30
2022-08-24T06:14:47.697Z,3.90
2022-08-24T06:17:17.510Z,4.00
2022-08-24T06:19:45.083Z,4.07
2022-08-24T06:22:12.421Z,4.18
2022-08-24T06:24:59.706Z,3.53
2022-08-24T06:27:30.406Z,4.18
2022-08-24T06:30:03.647Z,3.50
2022-08-24T06:33:00.741Z,3.83
2022-08-24T06:35:46.660Z,3.28
2022-08-24T06:38:14.669Z,4.03
2022-08-24T06:40:42.888Z,3.88
2022-08-24T06:43:11.045Z,4.10
2022-08-24T06:45:49.207Z,3.55
2022-08-24T06:48:18.956Z,3.22
2022-08-24T06:50:47.442Z,3.55
2022-08-24T06:53:15.334Z,3.45
2022-08-24T06:55:57.653Z,3.75
2022-08-24T06:58:28.726Z,3.92
2022-08-24T07:00:57.075Z,3.40
2022-08-24T07:03:25.559Z,3.13
2022-08-24T07:06:03.363Z,3.55
2022-08-24T07:08:42.242Z,2.92
2022-08-24T07:11:12.190Z,3.03
2022-08-24T07:13:39.828Z,3.28
2022-08-24T07:16:07.554Z,3.13
2022-08-24T07:18:37.188Z,2.88
2022-08-24T07:21:05.561Z,2.90
2022-08-24T07:23:43.207Z,3.28
2022-08-24T07:26:21.439Z,3.17
2022-08-24T07:28:52.325Z,3.38
2022-08-24T07:31:21.095Z,2.90
2022-08-24T07:33:59.640Z,3.33
2022-08-24T07:36:28.558Z,2.97
2022-08-24T07:38:57.319Z,3.05
2022-08-24T07:44:15.424Z,3.58
2022-08-24T07:46:42.916Z,2.47
2022-08-24T07:49:31.627Z,3.13
2022-08-24T07:52:01.277Z,3.30
2022-08-24T07:54:29.047Z,2.97
2022-08-24T07:56:58.670Z,3.20
2022-08-24T07:59:25.991Z,2.97
2022-08-24T08:01:53.308Z,3.30
2022-08-24T08:04:25.169Z,3.05
2022-08-24T08:06:53.731Z,3.53
2022-08-24T08:09:21.539Z,3.33
2022-08-24T08:11:49.377Z,3.10
2022-08-24T08:14:16.758Z,2.88
2022-08-24T08:16:45.741Z,3.55
2022-08-24T08:19:14.248Z,2.40
2022-08-24T08:22:03.961Z,3.47
2022-08-24T08:24:37.221Z,3.35
2022-08-24T08:27:04.881Z,3.10
2022-08-24T08:29:40.472Z,3.20
2022-08-24T08:32:09.830Z,2.95
2022-08-24T08:34:37.409Z,2.38
2022-08-24T08:37:05.503Z,2.65
2022-08-24T08:39:33.301Z,3.10
2022-08-24T08:42:14.322Z,2.63
2022-08-24T08:45:15.011Z,2.53
2022-08-24T08:51:17.995Z,2.80
2022-08-24T08:54:11.755Z,2.25
2022-08-24T08:57:19.129Z,3.33
2022-08-24T09:00:09.055Z,3.33
2022-08-24T09:03:07.105Z,3.45
2022-08-24T09:05:51.785Z,3.13
2022-08-24T09:08:52.109Z,3.30
2022-08-24T09:11:27.819Z,3.53
2022-08-24T09:14:25.380Z,3.67
2022-08-24T09:17:19.950Z,3.80
2022-08-24T09:20:12.809Z,3.95
2022-08-24T09:22:43.551Z,2.80
2022-08-24T09:25:26.697Z,2.92
2022-08-24T09:28:14.987Z,2.90
2022-08-24T09:31:26.817Z,2.70
2022-08-24T09:34:18.681Z,3.08
2022-08-24T09:37:09.989Z,3.33
2022-08-24T09:40:02.037Z,3.17
2022-08-24T09:42:57.725Z,2.53
2022-08-24T09:45:44.465Z,2.35
2022-08-24T09:48:30.347Z,3.75
2022-08-24T09:51:38.731Z,2.88
2022-08-24T09:54:34.888Z,3.33
2022-08-24T10:00:39.343Z,2.78
2022-08-24T10:03:34.958Z,2.90
2022-08-24T10:06:37.469Z,2.58
2022-08-24T10:09:20.974Z,2.90
2022-08-24T10:12:24.681Z,2.50
2022-08-24T10:15:09.009Z,2.70
2022-08-24T10:18:01.863Z,2.65
2022-08-24T10:21:05.709Z,2.90
2022-08-24T10:23:50.815Z,2.22
2022-08-24T10:26:40.038Z,3.60
2022-08-24T10:29:28.915Z,2.45
2022-08-24T10:32:25.921Z,2.70
2022-08-24T10:35:08.195Z,3.45
2022-08-24T10:38:26.899Z,3.00
2022-08-24T10:41:12.847Z,2.40
2022-08-24T10:44:17.016Z,2.85
2022-08-24T10:47:00.190Z,3.35
2022-08-24T10:49:36.771Z,3.17
2022-08-24T10:52:31.755Z,2.80
2022-08-24T10:55:24.991Z,3.05
2022-08-24T10:58:00.053Z,2.60
2022-08-24T11:00:29.653Z,2.90
2022-08-24T11:03:15.558Z,2.58
2022-08-24T11:05:56.126Z,2.38
2022-08-24T11:08:24.782Z,2.40
2022-08-24T11:11:14.077Z,2.90
2022-08-24T11:14:00.172Z,2.30
2022-08-24T11:16:38.366Z,2.00
2022-08-24T11:19:29.050Z,2.70
2022-08-24T11:22:02.302Z,2.17
2022-08-24T11:24:37.591Z,2.08
2022-08-24T11:27:16.540Z,2.22
2022-08-24T11:29:49.826Z,2.13
2022-08-24T11:32:47.886Z,1.95
2022-08-24T11:35:33.271Z,2.05
2022-08-24T11:38:38.290Z,1.88
2022-08-24T11:41:36.158Z,1.65
2022-08-24T11:44:07.912Z,2.05
2022-08-24T11:46:43.243Z,1.98
2022-08-24T11:49:28.279Z,2.00
2022-08-24T11:51:58.250Z,2.30
2022-08-24T11:54:57.430Z,1.92
2022-08-24T11:58:08.115Z,1.60
2022-08-24T12:00:51.916Z,1.95
2022-08-24T12:03:35.716Z,1.65
2022-08-24T12:06:20.882Z,2.08
2022-08-24T12:08:55.211Z,1.23
2022-08-24T12:11:47.323Z,1.35
2022-08-24T12:14:41.180Z,1.35
2022-08-24T12:17:12.157Z,1.80
2022-08-24T12:19:50.280Z,1.50
2022-08-24T12:22:19.929Z,1.48
2022-08-24T12:24:56.400Z,1.83
2022-08-24T12:27:25.647Z,1.77
2022-08-24T12:30:07.937Z,1.30
2022-08-24T12:32:53.902Z,1.50
2022-08-24T12:35:34.756Z,1.77
2022-08-24T12:38:11.929Z,1.83
2022-08-24T12:40:57.627Z,1.50
2022-08-24T12:43:58.719Z,1.55
2022-08-24T12:46:27.010Z,1.40
2022-08-24T12:49:06.839Z,1.60
2022-08-24T12:52:10.927Z,1.58
2022-08-24T12:55:31.815Z,1.33
2022-08-24T12:58:35.069Z,1.52
2022-08-24T13:01:06.452Z,1.35
2022-08-24T13:03:37.504Z,1.50
2022-08-24T13:06:13.769Z,1.30
2022-08-24T13:08:47.286Z,1.65
2022-08-24T13:11:34.346Z,1.20
2022-08-24T13:14:07.765Z,1.20
2022-08-24T13:16:46.467Z,1.17
2022-08-24T13:19:17.831Z,1.38
2022-08-24T13:21:48.869Z,1.60
2022-08-24T13:24:36.204Z,1.60
2022-08-24T13:27:12.760Z,1.90
2022-08-24T13:30:00.952Z,1.60
2022-08-24T13:32:46.106Z,1.52
2022-08-24T13:35:55.945Z,1.60
2022-08-24T13:38:42.728Z,1.70
2022-08-24T13:41:29.525Z,1.45
2022-08-24T13:44:06.252Z,1.38
2022-08-24T13:47:01.471Z,1.30
2022-08-24T13:50:02.246Z,1.48
2022-08-24T13:52:32.288Z,1.60
2022-08-24T13:55:28.080Z,1.67
2022-08-24T13:58:11.367Z,1.88
2022-08-24T14:01:03.102Z,4.57
2022-08-24T14:04:01.979Z,2.75
2022-08-24T14:06:53.778Z,1.55
2022-08-24T14:09:42.664Z,1.52
2022-08-24T14:12:24.094Z,1.20
2022-08-24T14:15:02.437Z,1.10
2022-08-24T14:17:55.611Z,1.15
2022-08-24T14:21:02.024Z,1.20
2022-08-24T14:23:46.664Z,1.52
2022-08-24T14:26:40.105Z,1.13
2022-08-24T14:29:19.789Z,1.63
2022-08-24T14:31:53.241Z,1.38
2022-08-24T14:34:41.825Z,1.30
2022-08-24T14:37:16.561Z,1.30
2022-08-24T14:39:53.165Z,1.35
2022-08-24T14:42:59.405Z,1.10
2022-08-24T14:45:46.709Z,1.40
2022-08-24T14:48:39.622Z,1.27
2022-08-24T14:51:23.698Z,1.13
2022-08-24T14:54:31.449Z,1.20
2022-08-24T14:57:27.433Z,1.25
2022-08-24T15:00:13.702Z,1.30
2022-08-24T15:02:44.256Z,1.08
2022-08-24T15:05:41.266Z,1.40
2022-08-24T15:08:16.317Z,1.40
2022-08-24T15:10:58.599Z,1.30
2022-08-24T15:13:50.603Z,1.48
2022-08-24T15:16:24.759Z,0.98
2022-08-24T15:18:52.049Z,1.10
2022-08-24T15:21:46.957Z,1.67
2022-08-24T15:24:38.469Z,1.60
2022-08-24T15:27:27.581Z,1.30
2022-08-24T15:29:58.954Z,1.90
2022-08-24T15:32:49.074Z,1.35
2022-08-24T15:35:30.771Z,1.08
2022-08-24T15:38:16.502Z,1.27
2022-08-24T15:40:47.009Z,1.20
2022-08-24T15:43:14.902Z,1.50
2022-08-24T15:45:51.907Z,1.23
2022-08-24T15:48:24.479Z,1.50
2022-08-24T15:50:54.048Z,1.30
2022-08-24T15:53:41.634Z,1.70
2022-08-24T15:56:21.056Z,1.85
2022-08-24T15:58:50.053Z,1.75
2022-08-24T16:01:35.727Z,1.70
2022-08-24T16:04:13.375Z,1.90
2022-08-24T16:06:49.526Z,1.60
2022-08-24T16:09:23.015Z,1.50
2022-08-24T16:12:20.857Z,1.77
2022-08-24T16:14:54.870Z,1.63
2022-08-24T16:17:33.263Z,1.98
2022-08-24T16:20:20.935Z,1.98
2022-08-24T16:22:58.992Z,1.83
2022-08-24T16:25:41.018Z,1.92
2022-08-24T16:28:34.836Z,2.20
2022-08-24T16:31:06.995Z,1.70
2022-08-24T16:33:46.347Z,1.83
2022-08-24T16:36:19.981Z,1.50
2022-08-24T16:38:50.147Z,1.60
2022-08-24T16:41:24.210Z,1.98
2022-08-24T16:43:51.917Z,1.92
2022-08-24T16:46:22.472Z,2.42
2022-08-24T16:48:50.098Z,1.92
2022-08-24T16:51:17.432Z,1.98
2022-08-24T16:53:44.706Z,1.85
2022-08-24T16:56:16.331Z,1.73
2022-08-24T16:58:47.368Z,1.80
2022-08-24T17:01:15.779Z,1.70
2022-08-24T17:03:43.552Z,1.42
2022-08-24T17:06:12.482Z,1.98
2022-08-24T17:08:40.462Z,1.77
2022-08-24T17:11:07.952Z,1.77
2022-08-24T17:13:51.027Z,1.80
2022-08-24T17:16:20.762Z,1.95
2022-08-24T17:18:48.316Z,2.28
2022-08-24T17:21:15.875Z,2.30
2022-08-24T17:23:43.806Z,2.50
2022-08-24T17:26:20.978Z,3.40
2022-08-24T17:28:52.298Z,3.65
2022-08-24T17:31:19.765Z,3.65
2022-08-24T17:33:47.254Z,3.60
2022-08-24T17:36:16.153Z,2.50
2022-08-24T17:38:46.202Z,3.65
2022-08-24T17:41:14.760Z,2.45
2022-08-24T17:43:45.975Z,2.08
2022-08-24T17:46:14.408Z,1.60
2022-08-24T17:48:47.277Z,2.75
2022-08-24T17:51:15.354Z,2.35
2022-08-24T17:53:42.931Z,1.88
2022-08-24T17:56:13.236Z,2.28
2022-08-24T17:59:00.537Z,2.80
2022-08-24T18:01:28.760Z,3.05
2022-08-24T18:03:56.096Z,3.90
2022-08-24T18:06:25.195Z,3.67
2022-08-24T18:08:56.558Z,2.92
2022-08-24T18:11:26.187Z,3.40
2022-08-24T18:13:54.554Z,3.90
2022-08-24T18:16:24.727Z,3.42
2022-08-24T18:18:53.974Z,2.70
2022-08-24T18:21:22.198Z,2.92
2022-08-24T18:23:50.863Z,2.47
2022-08-24T18:26:27.761Z,2.40
2022-08-24T18:28:57.653Z,2.92
2022-08-24T18:31:28.141Z,2.88
2022-08-24T18:33:55.667Z,2.30
2022-08-24T18:36:23.349Z,2.30
2022-08-24T18:38:51.959Z,2.85
2022-08-24T18:41:21.148Z,2.50
2022-08-24T18:43:49.013Z,2.10
2022-08-24T18:46:16.612Z,2.42
2022-08-24T18:48:44.166Z,2.60
2022-08-24T18:51:20.787Z,3.10
2022-08-24T18:53:48.947Z,5.57
2022-08-24T18:56:16.446Z,4.50
2022-08-24T18:58:44.324Z,3.47
2022-08-24T19:01:12.870Z,3.28
2022-08-24T19:03:40.235Z,3.38
2022-08-24T19:06:07.825Z,3.30
2022-08-24T19:08:35.167Z,3.53
2022-08-24T19:11:02.581Z,3.50
2022-08-24T19:13:30.031Z,2.88
2022-08-24T19:15:58.763Z,3.25
2022-08-24T19:18:26.517Z,6.05
2022-08-24T19:20:57.624Z,5.85
2022-08-24T19:23:31.132Z,4.38
2022-08-24T19:25:58.611Z,3.75
2022-08-24T19:28:27.011Z,4.38
2022-08-24T19:30:56.935Z,4.03
2022-08-24T19:33:28.248Z,5.45
2022-08-24T19:35:55.934Z,4.72
2022-08-24T19:38:25.685Z,4.22
2022-08-24T19:40:54.966Z,3.50
2022-08-24T19:43:23.925Z,3.40
2022-08-24T19:46:05.289Z,3.65
2022-08-24T19:48:42.332Z,3.67
2022-08-24T19:51:12.845Z,4.07
2022-08-24T19:53:42.847Z,3.45
2022-08-24T19:56:11.435Z,3.40
2022-08-24T19:59:02.149Z,3.60
2022-08-24T20:01:36.385Z,3.40
2022-08-24T20:04:06.701Z,3.38
2022-08-24T20:06:37.110Z,3.50
2022-08-24T20:09:05.123Z,3.85
2022-08-24T20:11:32.595Z,3.28
2022-08-24T20:14:00.331Z,3.33
2022-08-24T20:16:34.578Z,4.15
2022-08-24T20:19:03.881Z,4.43
2022-08-24T20:21:35.314Z,3.70
2022-08-24T20:24:05.338Z,3.78
2022-08-24T20:26:38.054Z,3.38
2022-08-24T20:29:05.420Z,3.40
2022-08-24T20:31:33.024Z,3.50
2022-08-24T20:34:00.594Z,3.60
2022-08-24T20:36:31.983Z,3.72
2022-08-24T20:39:01.401Z,3.70
2022-08-24T20:41:28.834Z,4.65
2022-08-24T20:43:56.904Z,4.78
2022-08-24T20:46:26.748Z,3.72
2022-08-24T20:48:55.902Z,3.53
2022-08-24T20:51:24.773Z,3.47
2022-08-24T20:53:52.075Z,3.80
2022-08-24T20:56:30.992Z,4.30
2022-08-24T20:59:01.408Z,2.83
2022-08-24T21:01:29.774Z,2.85
2022-08-24T21:04:00.299Z,3.50
2022-08-24T21:06:30.709Z,2.92
2022-08-24T21:08:58.025Z,3.47
2022-08-24T21:11:25.291Z,3.05
2022-08-24T21:13:52.506Z,3.20
2022-08-24T21:16:19.930Z,3.00
2022-08-24T21:18:47.299Z,2.53
2022-08-24T21:21:14.622Z,3.15
2022-08-24T21:23:41.941Z,3.10
2022-08-24T21:26:12.250Z,3.15
2022-08-24T21:28:42.089Z,3.17
2022-08-24T21:31:09.600Z,3.60
2022-08-24T21:33:55.291Z,3.42
2022-08-24T21:36:24.151Z,3.53
2022-08-24T21:38:53.444Z,3.22
2022-08-24T21:41:22.548Z,3.30
2022-08-24T21:43:51.388Z,3.45
2022-08-24T21:46:18.756Z,13.13
2022-08-24T21:48:47.205Z,6.75
2022-08-24T21:51:14.485Z,4.05
2022-08-24T21:53:42.309Z,3.65
2022-08-24T21:56:10.024Z,3.17
2022-08-24T21:58:37.333Z,2.85
2022-08-24T22:01:05.055Z,2.72
2022-08-24T22:03:39.979Z,2.67
2022-08-24T22:06:12.320Z,2.75
2022-08-24T22:08:42.628Z,3.10
2022-08-24T22:11:12.643Z,2.78
2022-08-24T22:13:40.722Z,2.60
2022-08-24T22:16:08.415Z,3.28
2022-08-24T22:18:35.901Z,2.80
2022-08-24T22:21:09.678Z,2.75
2022-08-24T22:23:37.029Z,3.20
2022-08-24T22:26:05.621Z,2.65
2022-08-24T22:28:35.682Z,2.45
2022-08-24T22:31:03.770Z,2.20
2022-08-24T22:33:31.030Z,2.35
2022-08-24T22:35:58.312Z,2.42
2022-08-24T22:38:25.574Z,2.20
2022-08-24T22:40:56.003Z,2.35
2022-08-24T22:43:25.407Z,2.08
2022-08-24T22:45:52.668Z,2.42
2022-08-24T22:48:19.968Z,2.70
2022-08-24T22:50:47.302Z,2.45
2022-08-24T22:53:14.584Z,2.42
2022-08-24T22:55:41.890Z,2.72
2022-08-24T22:58:09.176Z,1.85
2022-08-24T23:00:39.369Z,1.95
2022-08-24T23:03:06.752Z,1.92
2022-08-24T23:05:33.966Z,2.33
2022-08-24T23:08:01.831Z,2.40
2022-08-24T23:10:29.099Z,2.20
2022-08-24T23:12:56.410Z,1.98
2022-08-24T23:15:23.660Z,2.30
2022-08-24T23:17:50.907Z,2.30
2022-08-24T23:20:19.163Z,2.70
2022-08-24T23:22:48.316Z,2.08
2022-08-24T23:25:15.590Z,1.90
2022-08-24T23:27:44.484Z,2.10
2022-08-24T23:30:14.540Z,2.25
2022-08-24T23:32:43.001Z,2.05
2022-08-24T23:35:10.348Z,2.10
2022-08-24T23:37:37.734Z,2.00
2022-08-24T23:40:05.512Z,1.77
2022-08-24T23:42:32.829Z,2.20
2022-08-24T23:45:00.086Z,2.50
2022-08-24T23:47:28.482Z,2.08
2022-08-24T23:49:55.875Z,2.45
2022-08-24T23:52:28.196Z,2.10
2022-08-24T23:55:17.929Z,2.30
2022-08-24T23:57:45.110Z,2.17
